createdAt,value
2023-03-22T00:02:10.613Z,6.48
2023-03-22T00:04:37.434Z,6.48
2023-03-22T00:07:04.173Z,6.55
2023-03-22T00:09:31.008Z,6.54
2023-03-22T00:11:57.765Z,6.56
2023-03-22T00:14:24.580Z,6.51
2023-03-22T00:16:51.306Z,6.54
2023-03-22T00:19:18.051Z,6.58
2023-03-22T00:21:44.931Z,6.55
2023-03-22T00:24:11.833Z,6.59
2023-03-22T00:26:38.633Z,6.58
2023-03-22T00:29:05.533Z,6.57
2023-03-22T00:31:32.366Z,6.56
2023-03-22T00:33:59.139Z,6.58
2023-03-22T00:36:25.876Z,6.63
2023-03-22T00:38:52.682Z,6.64
2023-03-22T00:41:21.340Z,6.67
2023-03-22T00:43:48.215Z,6.64
2023-03-22T00:46:15.586Z,6.62
2023-03-22T00:48:42.365Z,6.66
2023-03-22T00:51:09.554Z,6.66
2023-03-22T00:53:42.422Z,6.68
2023-03-22T00:56:09.711Z,6.69
2023-03-22T00:58:36.443Z,6.68
2023-03-22T01:01:03.259Z,6.71
2023-03-22T01:03:30.154Z,6.69
2023-03-22T01:05:57.053Z,6.69
2023-03-22T01:08:24.344Z,6.64
2023-03-22T01:10:51.321Z,6.65
2023-03-22T01:13:18.431Z,6.62
2023-03-22T01:15:47.714Z,6.59
2023-03-22T01:18:14.492Z,6.52
2023-03-22T01:20:41.591Z,6.56
2023-03-22T01:23:08.528Z,6.56
2023-03-22T01:25:35.299Z,6.53
2023-03-22T01:28:06.862Z,6.54
2023-03-22T01:30:33.668Z,6.51
2023-03-22T01:33:00.614Z,6.54
2023-03-22T01:35:27.392Z,6.53
2023-03-22T01:37:54.146Z,6.51
2023-03-22T01:40:21.042Z,6.49
2023-03-22T01:42:47.853Z,6.55
2023-03-22T01:45:14.502Z,6.61
2023-03-22T01:47:52.584Z,6.62
2023-03-22T01:50:19.426Z,6.69
2023-03-22T01:52:46.217Z,6.73
2023-03-22T01:55:12.994Z,6.75
2023-03-22T01:57:39.714Z,6.79
2023-03-22T02:00:16.051Z,6.86
2023-03-22T02:02:43.755Z,6.84
2023-03-22T02:05:12.371Z,6.90
2023-03-22T02:07:40.043Z,6.92
2023-03-22T02:10:25.784Z,6.96
2023-03-22T02:13:11.773Z,7.03
2023-03-22T02:16:16.751Z,7.06
2023-03-22T02:18:53.885Z,7.05
2023-03-22T02:21:58.064Z,7.09
2023-03-22T02:24:49.621Z,7.12
2023-03-22T02:27:21.254Z,7.11
2023-03-22T02:30:25.643Z,7.15
2023-03-22T02:33:31.244Z,7.17
2023-03-22T02:36:36.299Z,7.19
2023-03-22T02:39:08.195Z,7.17
2023-03-22T02:41:50.674Z,7.21
2023-03-22T02:44:37.552Z,7.22
2023-03-22T02:47:29.752Z,7.25
2023-03-22T02:49:58.856Z,7.24
2023-03-22T02:52:53.765Z,7.22
2023-03-22T02:55:38.778Z,7.28
2023-03-22T02:58:11.613Z,7.26
2023-03-22T03:00:39.246Z,7.30
2023-03-22T03:03:12.730Z,7.33
2023-03-22T03:05:43.744Z,7.31
2023-03-22T03:08:11.051Z,7.31
2023-03-22T03:10:39.644Z,7.33
2023-03-22T03:13:06.551Z,7.30
2023-03-22T03:15:33.294Z,7.31
2023-03-22T03:18:13.849Z,7.34
2023-03-22T03:21:08.864Z,7.31
2023-03-22T03:23:53.823Z,7.33
2023-03-22T03:26:32.757Z,7.30
2023-03-22T03:29:27.503Z,7.31
2023-03-22T03:32:12.824Z,7.29
2023-03-22T03:34:52.873Z,7.28
2023-03-22T03:37:22.038Z,7.26
2023-03-22T03:39:57.360Z,7.23
2023-03-22T03:42:25.563Z,7.25
2023-03-22T03:44:52.328Z,7.27
2023-03-22T03:47:19.112Z,7.22
2023-03-22T03:49:46.279Z,7.22
2023-03-22T03:52:14.104Z,7.21
2023-03-22T03:54:41.185Z,7.22
2023-03-22T03:57:07.935Z,7.12
2023-03-22T03:59:34.675Z,7.16
2023-03-22T04:02:01.475Z,7.13
2023-03-22T04:04:29.104Z,7.16
2023-03-22T04:06:57.236Z,7.13
2023-03-22T04:09:25.205Z,7.12
2023-03-22T04:11:52.054Z,7.11
2023-03-22T04:14:18.937Z,7.15
2023-03-22T04:16:45.729Z,7.11
2023-03-22T04:19:12.764Z,7.12
2023-03-22T04:21:39.506Z,7.13
2023-03-22T04:24:06.378Z,7.09
2023-03-22T04:26:33.237Z,7.12
2023-03-22T04:29:00.032Z,7.08
2023-03-22T04:31:27.194Z,7.06
2023-03-22T04:33:56.707Z,7.07
2023-03-22T04:36:24.193Z,7.04
2023-03-22T04:38:51.653Z,7.10
2023-03-22T04:41:18.713Z,7.08
2023-03-22T04:43:47.160Z,7.06
2023-03-22T04:46:14.150Z,7.12
2023-03-22T04:48:41.494Z,7.11
2023-03-22T04:51:09.315Z,7.12
2023-03-22T04:53:39.495Z,7.09
2023-03-22T04:56:07.804Z,7.13
2023-03-22T04:58:35.394Z,7.10
2023-03-22T05:01:02.346Z,7.13
2023-03-22T05:03:29.207Z,7.11
2023-03-22T05:05:57.802Z,7.10
2023-03-22T05:08:25.753Z,7.12
2023-03-22T05:10:53.703Z,7.17
2023-03-22T05:13:20.821Z,7.19
2023-03-22T05:15:49.186Z,7.22
2023-03-22T05:18:16.666Z,7.25
2023-03-22T05:20:43.563Z,7.29
2023-03-22T05:23:10.389Z,7.35
2023-03-22T05:25:37.341Z,7.37
2023-03-22T05:28:04.406Z,7.43
2023-03-22T05:30:31.726Z,7.51
2023-03-22T05:33:03.288Z,7.51
2023-03-22T05:35:34.105Z,7.53
2023-03-22T05:38:01.262Z,7.53
2023-03-22T05:40:28.156Z,7.56
2023-03-22T05:42:55.647Z,7.55
2023-03-22T05:45:22.606Z,7.58
2023-03-22T05:47:49.533Z,7.63
2023-03-22T05:50:18.605Z,7.67
2023-03-22T05:52:45.697Z,7.70
2023-03-22T05:55:13.800Z,7.84
2023-03-22T05:57:41.087Z,7.96
2023-03-22T06:00:13.309Z,8.03
2023-03-22T06:02:41.187Z,8.17
2023-03-22T06:05:09.393Z,8.26
2023-03-22T06:07:36.393Z,8.35
2023-03-22T06:10:04.201Z,8.42
2023-03-22T06:12:31.498Z,8.52
2023-03-22T06:14:58.379Z,8.55
2023-03-22T06:17:25.675Z,8.59
2023-03-22T06:19:53.311Z,8.66
2023-03-22T06:22:20.285Z,8.64
2023-03-22T06:24:47.195Z,8.62
2023-03-22T06:27:14.149Z,8.67
2023-03-22T06:29:40.951Z,8.70
2023-03-22T06:32:07.707Z,8.75
2023-03-22T06:34:34.485Z,8.80
2023-03-22T06:37:01.316Z,8.82
2023-03-22T06:39:28.095Z,8.94
2023-03-22T06:41:54.841Z,8.96
2023-03-22T06:44:22.681Z,8.96
2023-03-22T06:46:49.418Z,8.94
2023-03-22T06:49:16.921Z,8.92
2023-03-22T06:51:43.652Z,8.91
2023-03-22T06:54:12.735Z,8.91
2023-03-22T06:56:39.478Z,9.04
2023-03-22T06:59:06.268Z,9.38
2023-03-22T07:01:33.077Z,9.71
2023-03-22T07:03:59.927Z,9.74
2023-03-22T07:06:26.734Z,9.95
2023-03-22T07:08:53.481Z,10.06
2023-03-22T07:11:20.405Z,10.31
2023-03-22T07:13:47.183Z,10.62
2023-03-22T07:16:14.017Z,10.79
2023-03-22T07:18:40.926Z,10.86
2023-03-22T07:21:07.727Z,10.87
2023-03-22T07:23:34.486Z,11.08
2023-03-22T07:26:01.292Z,11.40
2023-03-22T07:28:28.279Z,12.39
2023-03-22T07:31:11.593Z,13.04
2023-03-22T07:33:39.141Z,13.99
2023-03-22T07:36:06.910Z,14.11
2023-03-22T07:38:34.167Z,14.39
2023-03-22T07:41:00.965Z,15.08
2023-03-22T07:43:27.774Z,15.68
2023-03-22T07:45:54.595Z,16.51
2023-03-22T07:48:22.794Z,17.49
2023-03-22T07:50:49.850Z,19.08
2023-03-22T07:53:16.653Z,20.08
2023-03-22T07:55:43.465Z,20.16
2023-03-22T07:58:10.603Z,19.74
2023-03-22T08:00:37.685Z,19.41
2023-03-22T08:03:04.676Z,19.12
2023-03-22T08:05:31.464Z,19.54
2023-03-22T08:07:58.250Z,20.46
2023-03-22T08:10:25.001Z,20.91
2023-03-22T08:12:51.727Z,21.17
2023-03-22T08:15:19.237Z,21.32
2023-03-22T08:17:46.626Z,21.13
2023-03-22T08:20:13.537Z,21.00
2023-03-22T08:22:40.348Z,20.75
2023-03-22T08:25:07.354Z,20.70
2023-03-22T08:27:34.115Z,20.89
2023-03-22T08:30:00.964Z,20.96
2023-03-22T08:32:27.797Z,21.14
2023-03-22T08:34:54.527Z,21.30
2023-03-22T08:37:21.366Z,21.49
2023-03-22T08:39:48.109Z,21.82
2023-03-22T08:42:14.877Z,21.86
2023-03-22T08:44:41.653Z,21.85
2023-03-22T08:47:08.384Z,22.00
2023-03-22T08:49:35.729Z,21.99
2023-03-22T08:52:02.558Z,21.89
2023-03-22T08:54:33.424Z,22.30
2023-03-22T08:57:00.714Z,22.73
2023-03-22T08:59:27.964Z,23.59
2023-03-22T09:01:54.780Z,24.53
2023-03-22T09:04:21.639Z,25.57
2023-03-22T09:06:48.436Z,26.92
2023-03-22T09:09:15.175Z,26.65
2023-03-22T09:11:42.955Z,26.15
2023-03-22T09:14:10.016Z,25.73
2023-03-22T09:16:36.944Z,25.29
2023-03-22T09:19:03.798Z,26.06
2023-03-22T09:21:30.694Z,27.01
2023-03-22T09:23:57.563Z,26.67
2023-03-22T09:26:25.699Z,26.82
2023-03-22T09:28:52.629Z,26.72
2023-03-22T09:31:20.684Z,26.37
2023-03-22T09:33:47.679Z,26.11
2023-03-22T09:36:14.497Z,25.70
2023-03-22T09:38:42.143Z,25.37
2023-03-22T09:41:11.870Z,25.19
2023-03-22T09:43:40.594Z,24.60
2023-03-22T09:46:11.719Z,24.03
2023-03-22T09:48:39.214Z,23.61
2023-03-22T09:51:07.794Z,22.97
2023-03-22T09:53:34.626Z,22.73
2023-03-22T09:56:23.205Z,22.61
2023-03-22T09:59:00.392Z,22.52
2023-03-22T10:01:37.762Z,22.70
2023-03-22T10:04:42.003Z,23.44
2023-03-22T10:07:46.087Z,24.33
2023-03-22T10:10:13.426Z,24.81
2023-03-22T10:12:44.962Z,24.90
2023-03-22T10:15:18.864Z,25.43
2023-03-22T10:17:48.229Z,25.33
2023-03-22T10:20:29.214Z,24.95
2023-03-22T10:22:56.400Z,25.42
2023-03-22T10:25:31.131Z,25.29
2023-03-22T10:27:59.001Z,25.76
2023-03-22T10:30:26.829Z,26.52
2023-03-22T10:33:10.318Z,26.03
2023-03-22T10:35:37.135Z,27.03
2023-03-22T10:38:04.882Z,28.00
2023-03-22T10:40:33.101Z,28.92
2023-03-22T10:43:06.555Z,30.45
2023-03-22T10:45:34.121Z,31.67
2023-03-22T10:48:11.994Z,32.32
2023-03-22T10:50:40.286Z,33.25
2023-03-22T10:53:19.707Z,33.58
2023-03-22T10:55:46.518Z,33.27
2023-03-22T10:58:15.711Z,33.72
2023-03-22T11:00:50.116Z,33.90
2023-03-22T11:03:48.837Z,33.39
2023-03-22T11:06:17.775Z,32.11
2023-03-22T11:08:45.640Z,32.63
2023-03-22T11:11:32.750Z,32.90
2023-03-22T11:14:14.598Z,33.37
2023-03-22T11:16:49.773Z,31.70
2023-03-22T11:19:26.685Z,30.07
2023-03-22T11:21:54.791Z,29.84
2023-03-22T11:24:22.276Z,28.78
2023-03-22T11:27:21.547Z,27.48
2023-03-22T11:29:50.481Z,26.88
2023-03-22T11:32:27.354Z,28.07
2023-03-22T11:35:01.543Z,30.14
2023-03-22T11:37:28.413Z,30.60
2023-03-22T11:39:59.912Z,29.50
2023-03-22T11:42:26.764Z,28.25
2023-03-22T11:44:54.184Z,28.25
2023-03-22T11:47:20.942Z,28.68
2023-03-22T11:49:51.156Z,27.83
2023-03-22T11:52:19.455Z,27.28
2023-03-22T11:54:46.460Z,27.27
2023-03-22T11:57:24.915Z,28.39
2023-03-22T12:00:01.582Z,29.22
2023-03-22T12:02:33.416Z,28.43
2023-03-22T12:05:07.237Z,27.58
2023-03-22T12:07:34.694Z,26.90
2023-03-22T12:10:29.774Z,26.20
2023-03-22T12:12:59.844Z,25.82
2023-03-22T12:15:29.465Z,26.18
2023-03-22T12:18:08.902Z,27.11
2023-03-22T12:20:55.295Z,27.55
2023-03-22T12:23:29.744Z,27.67
2023-03-22T12:26:24.217Z,28.31
2023-03-22T12:28:59.302Z,28.71
2023-03-22T12:31:29.938Z,28.67
2023-03-22T12:33:58.469Z,28.48
2023-03-22T12:36:48.667Z,28.12
2023-03-22T12:39:40.927Z,27.90
2023-03-22T12:42:27.424Z,27.39
2023-03-22T12:45:05.533Z,26.86
2023-03-22T12:47:38.486Z,26.26
2023-03-22T12:50:38.816Z,25.61
2023-03-22T12:53:06.614Z,24.98
2023-03-22T12:55:35.844Z,24.47
2023-03-22T12:58:02.806Z,24.26
2023-03-22T13:00:33.879Z,24.26
2023-03-22T13:03:17.372Z,24.35
2023-03-22T13:05:50.784Z,24.39
2023-03-22T13:08:21.700Z,24.12
2023-03-22T13:11:15.950Z,23.71
2023-03-22T13:13:47.257Z,23.25
2023-03-22T13:16:20.170Z,22.79
2023-03-22T13:18:58.440Z,22.35
2023-03-22T13:21:30.146Z,21.98
2023-03-22T13:24:02.492Z,21.52
2023-03-22T13:26:35.570Z,21.19
2023-03-22T13:29:22.127Z,20.86
2023-03-22T13:31:52.018Z,20.54
2023-03-22T13:34:20.576Z,20.26
2023-03-22T13:36:55.221Z,20.08
2023-03-22T13:39:23.343Z,19.91
2023-03-22T13:41:52.307Z,19.76
2023-03-22T13:44:21.584Z,19.57
2023-03-22T13:46:52.150Z,19.42
2023-03-22T13:49:37.266Z,19.39
2023-03-22T13:52:05.066Z,19.45
2023-03-22T13:54:41.482Z,19.48
2023-03-22T13:57:37.684Z,19.69
2023-03-22T14:00:20.780Z,20.16
2023-03-22T14:02:48.627Z,20.53
2023-03-22T14:05:16.858Z,20.82
2023-03-22T14:07:48.568Z,21.08
2023-03-22T14:10:23.164Z,21.27
2023-03-22T14:12:52.746Z,21.37
2023-03-22T14:15:25.287Z,21.16
2023-03-22T14:18:29.574Z,20.91
2023-03-22T14:21:18.079Z,20.54
